Terminal Aerodrome Forecast
Issued by NWS Cleveland, OH

Home | Current Version | Previous Version | Graphics & Text | Print | Product List | Glossary Off
Versions: 1 2 3 4 5 6 7 8 9 10 11 12 13 14 15 16 17 18 19 20 21 22 23

448
FTUS41 KCLE 110522
TAFERI
TAF
KERI 110522Z 1106/1206 29015G24KT 6SM -SHSN BKN030
     FM110900 29012G20KT 3SM -SHSN OVC025
      TEMPO 1111/1115 3/4SM -SHSN OVC015
     FM111800 28012G20KT 6SM -SHSN OVC025
     FM120000 28010KT P6SM BKN025=

USA.gov is the U.S. government's official web portal to all federal, state and local government web resources and services.